sensor_id;sensor_type;location;lat;lon;timestamp;temperature;humidity
51476;DHT22;37554;50.362;7.568;2023-05-10T00:00:08;20.40;62.60
51476;DHT22;37554;50.362;7.568;2023-05-10T00:02:34;20.30;62.50
51476;DHT22;37554;50.362;7.568;2023-05-10T00:05:00;20.30;62.50
51476;DHT22;37554;50.362;7.568;2023-05-10T00:07:26;20.30;62.60
51476;DHT22;37554;50.362;7.568;2023-05-10T00:09:52;20.30;62.60
51476;DHT22;37554;50.362;7.568;2023-05-10T00:12:17;20.30;62.60
51476;DHT22;37554;50.362;7.568;2023-05-10T00:14:43;20.20;62.60
51476;DHT22;37554;50.362;7.568;2023-05-10T00:17:08;20.20;62.60
51476;DHT22;37554;50.362;7.568;2023-05-10T00:19:34;20.20;62.60
51476;DHT22;37554;50.362;7.568;2023-05-10T00:22:00;20.20;62.70
51476;DHT22;37554;50.362;7.568;2023-05-10T00:24:25;20.20;62.70
51476;DHT22;37554;50.362;7.568;2023-05-10T00:26:51;20.20;62.70
51476;DHT22;37554;50.362;7.568;2023-05-10T00:29:17;20.20;62.80
51476;DHT22;37554;50.362;7.568;2023-05-10T00:31:42;20.10;62.80
51476;DHT22;37554;50.362;7.568;2023-05-10T00:34:08;20.10;62.70
51476;DHT22;37554;50.362;7.568;2023-05-10T00:36:33;20.10;62.70
51476;DHT22;37554;50.362;7.568;2023-05-10T00:38:59;20.10;62.70
51476;DHT22;37554;50.362;7.568;2023-05-10T00:41:25;20.10;62.70
51476;DHT22;37554;50.362;7.568;2023-05-10T00:43:51;20.10;62.70
51476;DHT22;37554;50.362;7.568;2023-05-10T00:46:17;20.10;62.80
51476;DHT22;37554;50.362;7.568;2023-05-10T00:48:43;20.10;62.70
51476;DHT22;37554;50.362;7.568;2023-05-10T00:51:10;20.00;62.80
51476;DHT22;37554;50.362;7.568;2023-05-10T00:53:35;20.00;62.70
51476;DHT22;37554;50.362;7.568;2023-05-10T00:56:01;20.00;62.70
51476;DHT22;37554;50.362;7.568;2023-05-10T00:58:28;20.00;62.80
51476;DHT22;37554;50.362;7.568;2023-05-10T01:00:56;20.00;62.90
51476;DHT22;37554;50.362;7.568;2023-05-10T01:03:22;19.90;62.80
51476;DHT22;37554;50.362;7.568;2023-05-10T01:05:48;19.90;62.80
51476;DHT22;37554;50.362;7.568;2023-05-10T01:08:14;19.90;62.90
51476;DHT22;37554;50.362;7.568;2023-05-10T01:10:39;19.90;62.80
51476;DHT22;37554;50.362;7.568;2023-05-10T01:13:06;19.90;62.90
51476;DHT22;37554;50.362;7.568;2023-05-10T01:15:31;19.90;62.80
51476;DHT22;37554;50.362;7.568;2023-05-10T01:17:57;19.90;63.00
51476;DHT22;37554;50.362;7.568;2023-05-10T01:20:23;19.80;62.90
51476;DHT22;37554;50.362;7.568;2023-05-10T01:23:15;19.80;62.90
51476;DHT22;37554;50.362;7.568;2023-05-10T01:26:07;19.80;62.90
51476;DHT22;37554;50.362;7.568;2023-05-10T01:28:58;19.80;63.00
51476;DHT22;37554;50.362;7.568;2023-05-10T01:35:20;19.80;63.10
51476;DHT22;37554;50.362;7.568;2023-05-10T01:41:01;19.70;63.20
51476;DHT22;37554;50.362;7.568;2023-05-10T01:43:35;19.70;63.00
51476;DHT22;37554;50.362;7.568;2023-05-10T01:46:03;19.70;63.00
51476;DHT22;37554;50.362;7.568;2023-05-10T01:48:37;19.70;63.50
51476;DHT22;37554;50.362;7.568;2023-05-10T01:51:06;19.70;63.10
51476;DHT22;37554;50.362;7.568;2023-05-10T01:53:32;19.70;63.20
51476;DHT22;37554;50.362;7.568;2023-05-10T01:56:01;19.70;63.10
51476;DHT22;37554;50.362;7.568;2023-05-10T01:58:29;19.60;63.00
51476;DHT22;37554;50.362;7.568;2023-05-10T02:00:56;19.60;63.10
51476;DHT22;37554;50.362;7.568;2023-05-10T02:03:24;19.70;63.20
51476;DHT22;37554;50.362;7.568;2023-05-10T02:05:52;19.70;63.20
51476;DHT22;37554;50.362;7.568;2023-05-10T02:08:20;19.70;63.20
51476;DHT22;37554;50.362;7.568;2023-05-10T02:10:47;19.60;63.20
51476;DHT22;37554;50.362;7.568;2023-05-10T02:13:15;19.60;63.50
51476;DHT22;37554;50.362;7.568;2023-05-10T02:15:41;19.60;63.30
51476;DHT22;37554;50.362;7.568;2023-05-10T02:18:09;19.70;63.40
51476;DHT22;37554;50.362;7.568;2023-05-10T02:20:37;19.70;63.30
51476;DHT22;37554;50.362;7.568;2023-05-10T02:23:03;19.60;63.40
51476;DHT22;37554;50.362;7.568;2023-05-10T02:25:31;19.60;63.40
51476;DHT22;37554;50.362;7.568;2023-05-10T02:28:00;19.60;63.50
51476;DHT22;37554;50.362;7.568;2023-05-10T02:30:27;19.60;63.60
51476;DHT22;37554;50.362;7.568;2023-05-10T02:32:54;19.60;63.70
51476;DHT22;37554;50.362;7.568;2023-05-10T02:35:22;19.60;63.70
51476;DHT22;37554;50.362;7.568;2023-05-10T02:37:48;19.50;63.70
51476;DHT22;37554;50.362;7.568;2023-05-10T02:40:16;19.50;63.70
51476;DHT22;37554;50.362;7.568;2023-05-10T02:42:44;19.50;63.70
51476;DHT22;37554;50.362;7.568;2023-05-10T02:45:17;19.50;63.80
51476;DHT22;37554;50.362;7.568;2023-05-10T02:47:44;19.50;64.00
51476;DHT22;37554;50.362;7.568;2023-05-10T02:50:09;19.50;64.00
51476;DHT22;37554;50.362;7.568;2023-05-10T02:52:49;19.50;64.00
51476;DHT22;37554;50.362;7.568;2023-05-10T02:55:16;19.50;64.20
51476;DHT22;37554;50.362;7.568;2023-05-10T02:57:58;19.50;64.10
51476;DHT22;37554;50.362;7.568;2023-05-10T03:00:25;19.50;64.40
51476;DHT22;37554;50.362;7.568;2023-05-10T03:02:50;19.50;64.40
51476;DHT22;37554;50.362;7.568;2023-05-10T03:05:16;19.40;64.40
51476;DHT22;37554;50.362;7.568;2023-05-10T03:07:42;19.40;64.50
51476;DHT22;37554;50.362;7.568;2023-05-10T03:10:08;19.40;64.50
51476;DHT22;37554;50.362;7.568;2023-05-10T03:15:31;19.40;64.70
51476;DHT22;37554;50.362;7.568;2023-05-10T03:18:06;19.40;64.60
51476;DHT22;37554;50.362;7.568;2023-05-10T03:20:43;19.40;64.70
51476;DHT22;37554;50.362;7.568;2023-05-10T03:23:26;19.40;64.70
51476;DHT22;37554;50.362;7.568;2023-05-10T03:25:52;19.30;64.90
51476;DHT22;37554;50.362;7.568;2023-05-10T03:28:18;19.30;65.00
51476;DHT22;37554;50.362;7.568;2023-05-10T03:30:46;19.30;65.00
51476;DHT22;37554;50.362;7.568;2023-05-10T03:33:12;19.30;65.00
51476;DHT22;37554;50.362;7.568;2023-05-10T03:35:38;19.30;65.20
51476;DHT22;37554;50.362;7.568;2023-05-10T03:38:04;19.30;65.20
51476;DHT22;37554;50.362;7.568;2023-05-10T03:40:30;19.30;65.20
51476;DHT22;37554;50.362;7.568;2023-05-10T03:42:57;19.30;65.30
51476;DHT22;37554;50.362;7.568;2023-05-10T03:45:23;19.30;65.40
51476;DHT22;37554;50.362;7.568;2023-05-10T03:47:49;19.30;65.40
51476;DHT22;37554;50.362;7.568;2023-05-10T03:50:14;19.30;66.10
51476;DHT22;37554;50.362;7.568;2023-05-10T03:52:40;19.20;65.50
51476;DHT22;37554;50.362;7.568;2023-05-10T03:55:06;19.30;65.60
51476;DHT22;37554;50.362;7.568;2023-05-10T03:57:33;19.30;65.70
51476;DHT22;37554;50.362;7.568;2023-05-10T03:59:59;19.20;65.60
51476;DHT22;37554;50.362;7.568;2023-05-10T04:02:25;19.20;65.70
51476;DHT22;37554;50.362;7.568;2023-05-10T04:04:50;19.30;65.70
51476;DHT22;37554;50.362;7.568;2023-05-10T04:07:16;19.20;65.70
51476;DHT22;37554;50.362;7.568;2023-05-10T04:09:42;19.20;65.90
51476;DHT22;37554;50.362;7.568;2023-05-10T04:12:07;19.20;65.90
51476;DHT22;37554;50.362;7.568;2023-05-10T04:14:33;19.20;65.90
51476;DHT22;37554;50.362;7.568;2023-05-10T04:16:59;19.20;66.00
51476;DHT22;37554;50.362;7.568;2023-05-10T04:19:29;19.20;66.00
51476;DHT22;37554;50.362;7.568;2023-05-10T04:21:55;19.20;66.00
51476;DHT22;37554;50.362;7.568;2023-05-10T04:24:21;19.20;65.90
51476;DHT22;37554;50.362;7.568;2023-05-10T04:26:46;19.20;66.00
51476;DHT22;37554;50.362;7.568;2023-05-10T04:29:12;19.20;66.00
51476;DHT22;37554;50.362;7.568;2023-05-10T04:31:37;19.20;66.00
51476;DHT22;37554;50.362;7.568;2023-05-10T04:34:03;19.20;66.00
51476;DHT22;37554;50.362;7.568;2023-05-10T04:36:29;19.20;66.00
51476;DHT22;37554;50.362;7.568;2023-05-10T04:38:55;19.20;66.10
51476;DHT22;37554;50.362;7.568;2023-05-10T04:41:20;19.20;66.20
51476;DHT22;37554;50.362;7.568;2023-05-10T04:43:46;19.20;66.30
51476;DHT22;37554;50.362;7.568;2023-05-10T04:46:14;19.20;66.40
51476;DHT22;37554;50.362;7.568;2023-05-10T04:48:39;19.20;66.40
51476;DHT22;37554;50.362;7.568;2023-05-10T04:51:05;19.10;66.40
51476;DHT22;37554;50.362;7.568;2023-05-10T04:53:32;19.10;66.50
51476;DHT22;37554;50.362;7.568;2023-05-10T04:55:57;19.10;66.50
51476;DHT22;37554;50.362;7.568;2023-05-10T04:58:23;19.10;66.50
51476;DHT22;37554;50.362;7.568;2023-05-10T05:00:49;19.10;67.20
51476;DHT22;37554;50.362;7.568;2023-05-10T05:03:15;19.10;66.60
51476;DHT22;37554;50.362;7.568;2023-05-10T05:05:40;19.10;66.50
51476;DHT22;37554;50.362;7.568;2023-05-10T05:08:06;19.10;66.50
51476;DHT22;37554;50.362;7.568;2023-05-10T05:10:31;19.10;66.50
51476;DHT22;37554;50.362;7.568;2023-05-10T05:12:57;19.10;66.30
51476;DHT22;37554;50.362;7.568;2023-05-10T05:15:23;19.20;66.70
51476;DHT22;37554;50.362;7.568;2023-05-10T05:17:48;19.20;66.30
51476;DHT22;37554;50.362;7.568;2023-05-10T05:20:14;19.20;66.20
51476;DHT22;37554;50.362;7.568;2023-05-10T05:22:39;19.20;66.00
51476;DHT22;37554;50.362;7.568;2023-05-10T05:25:06;19.30;66.10
51476;DHT22;37554;50.362;7.568;2023-05-10T05:27:31;19.30;66.00
51476;DHT22;37554;50.362;7.568;2023-05-10T05:29:58;19.30;65.90
51476;DHT22;37554;50.362;7.568;2023-05-10T05:32:24;19.40;65.80
51476;DHT22;37554;50.362;7.568;2023-05-10T05:34:50;19.40;65.70
51476;DHT22;37554;50.362;7.568;2023-05-10T05:37:19;19.40;65.60
51476;DHT22;37554;50.362;7.568;2023-05-10T05:39:46;19.50;65.60
51476;DHT22;37554;50.362;7.568;2023-05-10T05:42:12;19.40;65.50
51476;DHT22;37554;50.362;7.568;2023-05-10T05:44:39;19.50;65.40
51476;DHT22;37554;50.362;7.568;2023-05-10T05:47:05;19.50;65.40
51476;DHT22;37554;50.362;7.568;2023-05-10T05:49:31;19.50;65.40
51476;DHT22;37554;50.362;7.568;2023-05-10T05:52:03;19.50;65.20
51476;DHT22;37554;50.362;7.568;2023-05-10T05:54:29;19.30;65.30
51476;DHT22;37554;50.362;7.568;2023-05-10T05:56:59;19.20;65.50
51476;DHT22;37554;50.362;7.568;2023-05-10T05:59:25;19.10;65.90
51476;DHT22;37554;50.362;7.568;2023-05-10T06:01:51;19.00;66.10
51476;DHT22;37554;50.362;7.568;2023-05-10T06:04:17;19.00;66.40
51476;DHT22;37554;50.362;7.568;2023-05-10T06:06:42;18.90;66.30
51476;DHT22;37554;50.362;7.568;2023-05-10T06:09:09;18.90;66.20
51476;DHT22;37554;50.362;7.568;2023-05-10T06:11:34;18.90;66.10
51476;DHT22;37554;50.362;7.568;2023-05-10T06:14:01;18.80;66.20
51476;DHT22;37554;50.362;7.568;2023-05-10T06:16:27;18.90;66.40
51476;DHT22;37554;50.362;7.568;2023-05-10T06:18:52;19.00;66.40
51476;DHT22;37554;50.362;7.568;2023-05-10T06:21:18;19.20;66.00
51476;DHT22;37554;50.362;7.568;2023-05-10T06:23:43;19.30;65.60
51476;DHT22;37554;50.362;7.568;2023-05-10T06:26:09;19.50;65.20
51476;DHT22;37554;50.362;7.568;2023-05-10T06:28:35;19.60;64.80
51476;DHT22;37554;50.362;7.568;2023-05-10T06:31:03;19.70;64.60
51476;DHT22;37554;50.362;7.568;2023-05-10T06:33:29;19.80;64.50
51476;DHT22;37554;50.362;7.568;2023-05-10T06:35:55;19.80;64.30
51476;DHT22;37554;50.362;7.568;2023-05-10T06:38:21;19.90;64.20
51476;DHT22;37554;50.362;7.568;2023-05-10T06:40:47;19.90;64.10
51476;DHT22;37554;50.362;7.568;2023-05-10T06:43:13;19.90;64.10
51476;DHT22;37554;50.362;7.568;2023-05-10T06:45:38;19.90;64.20
51476;DHT22;37554;50.362;7.568;2023-05-10T06:48:04;19.90;64.10
51476;DHT22;37554;50.362;7.568;2023-05-10T06:50:30;20.00;64.20
51476;DHT22;37554;50.362;7.568;2023-05-10T06:52:55;20.00;64.10
51476;DHT22;37554;50.362;7.568;2023-05-10T06:55:21;20.00;64.00
51476;DHT22;37554;50.362;7.568;2023-05-10T06:57:47;20.10;64.00
51476;DHT22;37554;50.362;7.568;2023-05-10T07:00:14;20.10;63.90
51476;DHT22;37554;50.362;7.568;2023-05-10T07:02:39;20.00;63.80
51476;DHT22;37554;50.362;7.568;2023-05-10T07:05:05;20.00;63.80
51476;DHT22;37554;50.362;7.568;2023-05-10T07:07:31;20.00;63.90
51476;DHT22;37554;50.362;7.568;2023-05-10T07:09:57;20.10;63.80
51476;DHT22;37554;50.362;7.568;2023-05-10T07:12:23;19.90;63.80
51476;DHT22;37554;50.362;7.568;2023-05-10T07:14:49;19.80;64.10
51476;DHT22;37554;50.362;7.568;2023-05-10T07:17:15;19.90;64.30
51476;DHT22;37554;50.362;7.568;2023-05-10T07:19:41;20.00;64.10
51476;DHT22;37554;50.362;7.568;2023-05-10T07:22:06;20.10;64.00
51476;DHT22;37554;50.362;7.568;2023-05-10T07:24:33;20.20;63.90
51476;DHT22;37554;50.362;7.568;2023-05-10T07:26:59;20.30;63.70
51476;DHT22;37554;50.362;7.568;2023-05-10T07:29:24;20.30;63.40
51476;DHT22;37554;50.362;7.568;2023-05-10T07:31:50;20.40;63.20
51476;DHT22;37554;50.362;7.568;2023-05-10T07:34:16;20.40;63.40
51476;DHT22;37554;50.362;7.568;2023-05-10T07:36:41;20.50;62.90
51476;DHT22;37554;50.362;7.568;2023-05-10T07:39:07;20.50;62.80
51476;DHT22;37554;50.362;7.568;2023-05-10T07:41:33;20.50;62.60
51476;DHT22;37554;50.362;7.568;2023-05-10T07:43:58;20.70;62.50
51476;DHT22;37554;50.362;7.568;2023-05-10T07:46:24;20.70;62.20
51476;DHT22;37554;50.362;7.568;2023-05-10T07:48:49;20.70;62.10
51476;DHT22;37554;50.362;7.568;2023-05-10T07:51:15;20.70;62.10
51476;DHT22;37554;50.362;7.568;2023-05-10T07:53:41;20.70;62.10
51476;DHT22;37554;50.362;7.568;2023-05-10T07:56:26;20.60;62.10
51476;DHT22;37554;50.362;7.568;2023-05-10T07:58:58;20.50;62.20
51476;DHT22;37554;50.362;7.568;2023-05-10T08:01:25;20.50;62.40
51476;DHT22;37554;50.362;7.568;2023-05-10T08:03:55;20.50;62.30
51476;DHT22;37554;50.362;7.568;2023-05-10T08:06:21;20.60;62.30
51476;DHT22;37554;50.362;7.568;2023-05-10T08:08:48;20.60;62.20
51476;DHT22;37554;50.362;7.568;2023-05-10T08:11:19;20.60;62.20
51476;DHT22;37554;50.362;7.568;2023-05-10T08:13:48;20.70;62.20
51476;DHT22;37554;50.362;7.568;2023-05-10T08:16:17;20.70;62.10
51476;DHT22;37554;50.362;7.568;2023-05-10T08:18:44;20.80;62.00
51476;DHT22;37554;50.362;7.568;2023-05-10T08:21:10;20.90;61.70
51476;DHT22;37554;50.362;7.568;2023-05-10T08:23:39;20.90;61.50
51476;DHT22;37554;50.362;7.568;2023-05-10T08:26:05;20.90;61.70
51476;DHT22;37554;50.362;7.568;2023-05-10T08:28:31;20.90;61.70
51476;DHT22;37554;50.362;7.568;2023-05-10T08:30:56;20.90;61.70
51476;DHT22;37554;50.362;7.568;2023-05-10T08:33:22;21.00;61.60
51476;DHT22;37554;50.362;7.568;2023-05-10T08:35:48;21.10;61.60
51476;DHT22;37554;50.362;7.568;2023-05-10T08:38:13;21.10;61.50
51476;DHT22;37554;50.362;7.568;2023-05-10T08:40:42;21.20;61.40
51476;DHT22;37554;50.362;7.568;2023-05-10T08:43:11;21.30;61.40
51476;DHT22;37554;50.362;7.568;2023-05-10T08:45:39;21.30;61.80
51476;DHT22;37554;50.362;7.568;2023-05-10T08:48:07;21.40;61.00
51476;DHT22;37554;50.362;7.568;2023-05-10T08:50:35;21.50;60.90
51476;DHT22;37554;50.362;7.568;2023-05-10T08:53:04;21.60;60.80
51476;DHT22;37554;50.362;7.568;2023-05-10T08:55:31;21.60;60.60
51476;DHT22;37554;50.362;7.568;2023-05-10T08:57:58;21.60;60.60
51476;DHT22;37554;50.362;7.568;2023-05-10T09:00:24;21.60;60.70
51476;DHT22;37554;50.362;7.568;2023-05-10T09:02:50;21.50;60.90
51476;DHT22;37554;50.362;7.568;2023-05-10T09:05:16;21.40;61.00
51476;DHT22;37554;50.362;7.568;2023-05-10T09:07:43;21.40;61.10
51476;DHT22;37554;50.362;7.568;2023-05-10T09:10:09;21.40;61.20
51476;DHT22;37554;50.362;7.568;2023-05-10T09:12:36;21.40;61.20
51476;DHT22;37554;50.362;7.568;2023-05-10T09:15:02;21.50;61.10
51476;DHT22;37554;50.362;7.568;2023-05-10T09:17:29;21.50;60.90
51476;DHT22;37554;50.362;7.568;2023-05-10T09:20:03;21.50;60.80
51476;DHT22;37554;50.362;7.568;2023-05-10T09:22:30;21.60;60.70
51476;DHT22;37554;50.362;7.568;2023-05-10T09:25:15;21.50;60.70
51476;DHT22;37554;50.362;7.568;2023-05-10T09:27:45;21.50;60.50
51476;DHT22;37554;50.362;7.568;2023-05-10T09:30:25;21.60;60.50
51476;DHT22;37554;50.362;7.568;2023-05-10T09:32:52;21.70;60.30
51476;DHT22;37554;50.362;7.568;2023-05-10T09:35:19;21.80;60.00
51476;DHT22;37554;50.362;7.568;2023-05-10T09:37:47;21.90;59.70
51476;DHT22;37554;50.362;7.568;2023-05-10T09:40:15;22.00;59.50
51476;DHT22;37554;50.362;7.568;2023-05-10T09:43:06;22.00;59.20
51476;DHT22;37554;50.362;7.568;2023-05-10T09:45:33;22.10;58.80
51476;DHT22;37554;50.362;7.568;2023-05-10T09:48:00;22.20;58.90
51476;DHT22;37554;50.362;7.568;2023-05-10T09:50:27;22.20;58.80
51476;DHT22;37554;50.362;7.568;2023-05-10T09:53:00;22.20;58.60
51476;DHT22;37554;50.362;7.568;2023-05-10T09:55:45;22.30;58.50
51476;DHT22;37554;50.362;7.568;2023-05-10T09:58:11;22.40;57.90
51476;DHT22;37554;50.362;7.568;2023-05-10T10:00:42;22.50;57.40
51476;DHT22;37554;50.362;7.568;2023-05-10T10:03:16;22.60;57.70
51476;DHT22;37554;50.362;7.568;2023-05-10T10:05:43;22.80;57.20
51476;DHT22;37554;50.362;7.568;2023-05-10T10:08:09;23.00;56.90
51476;DHT22;37554;50.362;7.568;2023-05-10T10:10:35;23.20;56.60
51476;DHT22;37554;50.362;7.568;2023-05-10T10:13:01;23.40;56.20
51476;DHT22;37554;50.362;7.568;2023-05-10T10:15:27;23.40;55.90
51476;DHT22;37554;50.362;7.568;2023-05-10T10:17:54;23.50;55.70
51476;DHT22;37554;50.362;7.568;2023-05-10T10:20:21;23.50;55.50
51476;DHT22;37554;50.362;7.568;2023-05-10T10:22:47;23.60;55.30
51476;DHT22;37554;50.362;7.568;2023-05-10T10:25:15;23.70;55.10
51476;DHT22;37554;50.362;7.568;2023-05-10T10:30:45;24.10;54.20
51476;DHT22;37554;50.362;7.568;2023-05-10T10:33:39;24.40;53.70
51476;DHT22;37554;50.362;7.568;2023-05-10T10:36:06;24.70;53.10
51476;DHT22;37554;50.362;7.568;2023-05-10T10:41:37;25.10;52.40
51476;DHT22;37554;50.362;7.568;2023-05-10T10:49:43;24.90;52.50
51476;DHT22;37554;50.362;7.568;2023-05-10T10:55:06;25.00;52.30
51476;DHT22;37554;50.362;7.568;2023-05-10T10:57:53;24.90;52.70
51476;DHT22;37554;50.362;7.568;2023-05-10T11:02:50;24.90;52.80
51476;DHT22;37554;50.362;7.568;2023-05-10T11:05:48;24.90;52.80
51476;DHT22;37554;50.362;7.568;2023-05-10T11:08:26;24.90;52.40
51476;DHT22;37554;50.362;7.568;2023-05-10T11:11:14;24.90;52.60
51476;DHT22;37554;50.362;7.568;2023-05-10T11:13:46;24.90;53.30
51476;DHT22;37554;50.362;7.568;2023-05-10T11:18:53;24.70;52.70
51476;DHT22;37554;50.362;7.568;2023-05-10T11:21:19;24.60;52.90
51476;DHT22;37554;50.362;7.568;2023-05-10T11:23:53;24.60;53.10
51476;DHT22;37554;50.362;7.568;2023-05-10T11:26:22;24.60;53.00
51476;DHT22;37554;50.362;7.568;2023-05-10T11:28:51;24.60;52.90
51476;DHT22;37554;50.362;7.568;2023-05-10T11:31:18;24.70;52.80
51476;DHT22;37554;50.362;7.568;2023-05-10T11:33:45;24.80;52.50
51476;DHT22;37554;50.362;7.568;2023-05-10T11:36:16;25.10;52.20
51476;DHT22;37554;50.362;7.568;2023-05-10T11:38:42;25.20;51.70
51476;DHT22;37554;50.362;7.568;2023-05-10T11:41:11;25.30;51.80
51476;DHT22;37554;50.362;7.568;2023-05-10T11:43:38;25.30;51.60
51476;DHT22;37554;50.362;7.568;2023-05-10T11:46:06;25.30;51.50
51476;DHT22;37554;50.362;7.568;2023-05-10T11:48:31;25.40;51.50
51476;DHT22;37554;50.362;7.568;2023-05-10T11:50:57;25.40;51.40
51476;DHT22;37554;50.362;7.568;2023-05-10T11:53:26;25.50;51.40
51476;DHT22;37554;50.362;7.568;2023-05-10T11:55:52;25.50;51.30
51476;DHT22;37554;50.362;7.568;2023-05-10T11:58:18;25.60;51.20
51476;DHT22;37554;50.362;7.568;2023-05-10T12:00:44;25.70;51.00
51476;DHT22;37554;50.362;7.568;2023-05-10T12:03:11;25.70;50.90
51476;DHT22;37554;50.362;7.568;2023-05-10T12:05:37;25.60;50.80
51476;DHT22;37554;50.362;7.568;2023-05-10T12:08:15;25.60;50.90
51476;DHT22;37554;50.362;7.568;2023-05-10T12:10:41;25.50;50.60
51476;DHT22;37554;50.362;7.568;2023-05-10T12:13:14;25.40;50.90
51476;DHT22;37554;50.362;7.568;2023-05-10T12:15:41;25.40;50.80
51476;DHT22;37554;50.362;7.568;2023-05-10T12:18:09;25.40;50.80
51476;DHT22;37554;50.362;7.568;2023-05-10T12:20:36;25.40;50.70
51476;DHT22;37554;50.362;7.568;2023-05-10T12:23:02;25.40;50.60
51476;DHT22;37554;50.362;7.568;2023-05-10T12:25:33;25.40;50.50
51476;DHT22;37554;50.362;7.568;2023-05-10T12:28:02;25.50;50.40
51476;DHT22;37554;50.362;7.568;2023-05-10T12:30:29;25.60;50.40
51476;DHT22;37554;50.362;7.568;2023-05-10T12:33:12;25.70;50.10
51476;DHT22;37554;50.362;7.568;2023-05-10T12:35:59;26.10;49.60
51476;DHT22;37554;50.362;7.568;2023-05-10T12:38:27;26.20;49.00
51476;DHT22;37554;50.362;7.568;2023-05-10T12:41:02;26.30;49.20
51476;DHT22;37554;50.362;7.568;2023-05-10T12:43:28;26.50;49.10
51476;DHT22;37554;50.362;7.568;2023-05-10T12:45:54;26.60;48.80
51476;DHT22;37554;50.362;7.568;2023-05-10T12:48:20;26.70;48.60
51476;DHT22;37554;50.362;7.568;2023-05-10T12:50:46;26.80;48.30
51476;DHT22;37554;50.362;7.568;2023-05-10T12:53:13;27.00;48.10
51476;DHT22;37554;50.362;7.568;2023-05-10T12:55:43;27.10;47.90
51476;DHT22;37554;50.362;7.568;2023-05-10T12:58:09;27.30;47.70
51476;DHT22;37554;50.362;7.568;2023-05-10T13:00:35;27.50;47.40
51476;DHT22;37554;50.362;7.568;2023-05-10T13:03:03;27.40;47.40
51476;DHT22;37554;50.362;7.568;2023-05-10T13:05:31;27.10;47.70
51476;DHT22;37554;50.362;7.568;2023-05-10T13:07:56;26.90;48.10
51476;DHT22;37554;50.362;7.568;2023-05-10T13:10:22;26.70;48.50
51476;DHT22;37554;50.362;7.568;2023-05-10T13:12:49;26.40;48.70
51476;DHT22;37554;50.362;7.568;2023-05-10T13:15:14;26.30;48.90
51476;DHT22;37554;50.362;7.568;2023-05-10T13:17:40;26.10;49.10
51476;DHT22;37554;50.362;7.568;2023-05-10T13:20:08;26.00;49.30
51476;DHT22;37554;50.362;7.568;2023-05-10T13:22:35;25.90;49.50
51476;DHT22;37554;50.362;7.568;2023-05-10T13:25:01;25.70;49.60
51476;DHT22;37554;50.362;7.568;2023-05-10T13:27:27;25.70;49.80
51476;DHT22;37554;50.362;7.568;2023-05-10T13:29:53;25.70;50.00
51476;DHT22;37554;50.362;7.568;2023-05-10T13:32:18;25.60;50.00
51476;DHT22;37554;50.362;7.568;2023-05-10T13:34:44;25.60;50.20
51476;DHT22;37554;50.362;7.568;2023-05-10T13:37:10;25.60;50.40
51476;DHT22;37554;50.362;7.568;2023-05-10T13:39:35;25.60;50.50
51476;DHT22;37554;50.362;7.568;2023-05-10T13:42:03;25.60;50.50
51476;DHT22;37554;50.362;7.568;2023-05-10T13:44:29;25.70;50.50
51476;DHT22;37554;50.362;7.568;2023-05-10T13:46:55;25.70;50.30
51476;DHT22;37554;50.362;7.568;2023-05-10T13:49:21;25.80;50.20
51476;DHT22;37554;50.362;7.568;2023-05-10T13:51:47;25.90;50.10
51476;DHT22;37554;50.362;7.568;2023-05-10T13:54:13;25.90;50.20
51476;DHT22;37554;50.362;7.568;2023-05-10T13:56:39;25.90;50.30
51476;DHT22;37554;50.362;7.568;2023-05-10T13:59:06;25.90;50.30
51476;DHT22;37554;50.362;7.568;2023-05-10T14:01:33;26.00;50.10
51476;DHT22;37554;50.362;7.568;2023-05-10T14:03:59;26.30;50.00
51476;DHT22;37554;50.362;7.568;2023-05-10T14:06:24;26.40;49.70
51476;DHT22;37554;50.362;7.568;2023-05-10T14:08:50;26.80;49.40
51476;DHT22;37554;50.362;7.568;2023-05-10T14:11:16;27.20;48.80
51476;DHT22;37554;50.362;7.568;2023-05-10T14:13:41;27.50;48.50
51476;DHT22;37554;50.362;7.568;2023-05-10T14:16:07;28.30;47.50
51476;DHT22;37554;50.362;7.568;2023-05-10T14:18:33;28.80;46.70
51476;DHT22;37554;50.362;7.568;2023-05-10T14:20:58;29.50;46.10
51476;DHT22;37554;50.362;7.568;2023-05-10T14:23:24;30.60;44.80
51476;DHT22;37554;50.362;7.568;2023-05-10T14:25:53;30.70;44.20
51476;DHT22;37554;50.362;7.568;2023-05-10T14:28:18;30.10;44.40
51476;DHT22;37554;50.362;7.568;2023-05-10T14:30:44;29.60;45.00
51476;DHT22;37554;50.362;7.568;2023-05-10T14:33:10;29.30;45.50
51476;DHT22;37554;50.362;7.568;2023-05-10T14:35:36;29.00;45.90
51476;DHT22;37554;50.362;7.568;2023-05-10T14:38:02;28.80;46.30
51476;DHT22;37554;50.362;7.568;2023-05-10T14:40:29;28.60;46.50
51476;DHT22;37554;50.362;7.568;2023-05-10T14:42:55;28.50;46.60
51476;DHT22;37554;50.362;7.568;2023-05-10T14:45:21;28.30;46.80
51476;DHT22;37554;50.362;7.568;2023-05-10T14:47:47;28.20;46.90
51476;DHT22;37554;50.362;7.568;2023-05-10T14:50:13;28.00;47.10
51476;DHT22;37554;50.362;7.568;2023-05-10T14:52:39;27.90;47.70
51476;DHT22;37554;50.362;7.568;2023-05-10T14:55:05;27.90;47.30
51476;DHT22;37554;50.362;7.568;2023-05-10T14:57:31;27.80;47.20
51476;DHT22;37554;50.362;7.568;2023-05-10T14:59:57;27.80;47.20
51476;DHT22;37554;50.362;7.568;2023-05-10T15:02:23;27.80;47.10
51476;DHT22;37554;50.362;7.568;2023-05-10T15:04:48;27.90;47.10
51476;DHT22;37554;50.362;7.568;2023-05-10T15:07:14;27.80;46.90
51476;DHT22;37554;50.362;7.568;2023-05-10T15:09:41;27.80;47.00
51476;DHT22;37554;50.362;7.568;2023-05-10T15:12:07;27.70;47.10
51476;DHT22;37554;50.362;7.568;2023-05-10T15:14:32;27.60;47.00
51476;DHT22;37554;50.362;7.568;2023-05-10T15:16:59;27.50;47.10
51476;DHT22;37554;50.362;7.568;2023-05-10T15:19:24;27.50;47.20
51476;DHT22;37554;50.362;7.568;2023-05-10T15:21:50;27.40;47.20
51476;DHT22;37554;50.362;7.568;2023-05-10T15:24:15;27.40;47.30
51476;DHT22;37554;50.362;7.568;2023-05-10T15:26:41;27.40;47.40
51476;DHT22;37554;50.362;7.568;2023-05-10T15:29:07;27.30;47.40
51476;DHT22;37554;50.362;7.568;2023-05-10T15:31:33;27.20;47.40
51476;DHT22;37554;50.362;7.568;2023-05-10T15:34:01;27.30;47.50
51476;DHT22;37554;50.362;7.568;2023-05-10T15:36:31;27.30;47.40
51476;DHT22;37554;50.362;7.568;2023-05-10T15:38:57;27.40;47.40
51476;DHT22;37554;50.362;7.568;2023-05-10T15:41:23;27.40;47.30
51476;DHT22;37554;50.362;7.568;2023-05-10T15:43:48;27.40;47.40
51476;DHT22;37554;50.362;7.568;2023-05-10T15:46:14;27.40;47.40
51476;DHT22;37554;50.362;7.568;2023-05-10T15:48:40;27.30;47.40
51476;DHT22;37554;50.362;7.568;2023-05-10T15:51:05;27.30;47.50
51476;DHT22;37554;50.362;7.568;2023-05-10T15:53:31;27.20;47.60
51476;DHT22;37554;50.362;7.568;2023-05-10T15:55:57;27.20;47.70
51476;DHT22;37554;50.362;7.568;2023-05-10T15:58:22;27.10;47.70
51476;DHT22;37554;50.362;7.568;2023-05-10T16:00:48;27.10;47.80